Time;durP1;ratioP1;P1;durP2;ratioP2;P2;SDS_P1;SDS_P2;PMS_P1;PMS_P2;Temp;Humidity;BMP_temperature;BMP_pressure;BME280_temperature;BME280_humidity;BME280_pressure;Samples;Min_cycle;Max_cycle;Signal;HPM_P1;HPM_P2
2023/03/29 00:00:15;;;;;;;4.95;2.30;;;;;;;-143.48;78.30;118439.88;5074174;28;20031;-68
2023/03/29 00:02:41;;;;;;;6.78;2.35;;;;;;;-143.48;77.56;118439.88;5056128;28;20024;-68
2023/03/29 00:05:08;;;;;;;8.00;2.40;;;;;;;-143.48;77.23;118439.88;5074155;28;20142;-69
2023/03/29 00:07:34;;;;;;;5.35;2.45;;;;;;;-143.48;77.31;118439.88;5073857;28;20052;-68
2023/03/29 00:10:03;;;;;;;6.15;2.47;;;;;;;-143.48;77.64;118439.88;5074098;28;20417;-68
2023/03/29 00:12:29;;;;;;;8.52;2.50;;;;;;;-143.48;77.60;118439.88;5073924;28;20023;-67
2023/03/29 00:14:55;;;;;;;6.95;2.85;;;;;;;-143.48;77.27;118439.88;5073721;28;20024;-67
2023/03/29 00:17:21;;;;;;;4.13;2.38;;;;;;;-143.48;76.96;118439.88;5073738;28;20020;-67
2023/03/29 00:19:46;;;;;;;4.97;2.42;;;;;;;-143.48;77.34;118439.88;5073725;28;20445;-67
2023/03/29 00:22:12;;;;;;;6.35;2.60;;;;;;;-143.48;75.99;118439.88;5073794;28;20028;-67
2023/03/29 00:24:37;;;;;;;9.88;3.20;;;;;;;-143.48;75.72;118439.88;5073726;28;20020;-68
2023/03/29 00:27:03;;;;;;;7.22;2.42;;;;;;;-143.48;75.42;118439.88;5073749;28;20021;-67
2023/03/29 00:29:28;;;;;;;4.35;2.20;;;;;;;-143.48;74.71;118439.88;5073582;28;20059;-68
2023/03/29 00:31:54;;;;;;;5.80;2.60;;;;;;;-143.48;73.40;118439.88;5073606;28;20059;-68
2023/03/29 00:34:21;;;;;;;7.47;2.58;;;;;;;-143.48;73.11;118439.88;5073456;28;20385;-67
2023/03/29 00:36:49;;;;;;;5.20;2.47;;;;;;;-143.48;72.64;118439.88;5073467;28;20093;-68
2023/03/29 00:39:18;;;;;;;7.13;2.35;;;;;;;-143.48;73.30;118439.88;5073410;28;20033;-67
2023/03/29 00:41:45;;;;;;;10.18;2.60;;;;;;;-143.48;74.29;118439.88;5073504;28;20054;-66
2023/03/29 00:44:48;;;;;;;5.03;2.85;;;;;;;-143.48;73.98;118439.88;5055450;28;20028;-67
2023/03/29 00:47:15;;;;;;;4.82;2.70;;;;;;;-143.48;74.25;118439.88;5073367;28;20032;-67
2023/03/29 00:49:40;;;;;;;5.72;2.42;;;;;;;-143.48;73.38;118439.88;5055394;28;20061;-67
2023/03/29 00:52:06;;;;;;;4.72;2.33;;;;;;;-143.48;72.96;118439.88;5055422;28;20118;-68
2023/03/29 00:54:36;;;;;;;6.78;2.83;;;;;;;-143.48;73.00;118439.88;5073141;28;20068;-67
2023/03/29 00:57:03;;;;;;;6.32;2.58;;;;;;;-143.48;72.69;118439.88;5055181;28;20044;-68
2023/03/29 00:59:31;;;;;;;5.65;2.60;;;;;;;-143.48;73.08;118439.88;5073212;28;20472;-68
2023/03/29 01:02:00;;;;;;;8.10;2.90;;;;;;;-143.48;72.85;118439.88;5073085;28;20027;-67
2023/03/29 01:04:32;;;;;;;7.55;2.70;;;;;;;-143.48;73.25;118439.88;5073458;28;20027;-67
2023/03/29 01:07:12;;;;;;;6.55;2.75;;;;;;;-143.48;72.60;118439.88;5073087;28;20031;-67
2023/03/29 01:09:40;;;;;;;5.65;2.95;;;;;;;-143.48;72.90;118439.88;5073020;28;20031;-67
2023/03/29 01:12:15;;;;;;;5.70;2.90;;;;;;;-143.48;72.57;118439.88;5073147;28;20043;-67
2023/03/29 01:14:49;;;;;;;6.68;2.63;;;;;;;-143.48;72.96;118439.88;5072888;28;20021;-67
2023/03/29 01:17:14;;;;;;;;;;;;;;;-143.48;72.91;118439.88;5055591;28;20034;-68
2023/03/29 01:19:46;;;;;;;5.35;2.53;;;;;;;-143.48;73.27;118439.88;5072377;28;19908;-67
2023/03/29 01:22:24;;;;;;;7.30;2.67;;;;;;;-143.48;73.28;118439.88;5073283;28;20040;-67
2023/03/29 01:25:28;;;;;;;7.47;2.92;;;;;;;-143.48;73.19;118439.88;5072982;28;20115;-67
2023/03/29 01:28:01;;;;;;;5.20;2.58;;;;;;;-143.48;73.00;118439.88;5039127;28;20037;-67
2023/03/29 01:30:37;;;;;;;6.22;2.75;;;;;;;-143.48;73.68;118439.88;5072823;28;20020;-68
2023/03/29 01:33:22;;;;;;;5.53;2.63;;;;;;;-143.48;73.22;118439.88;5054833;28;20028;-67
2023/03/29 01:35:56;;;;;;;7.97;2.90;;;;;;;-143.48;72.93;118439.88;5072855;28;20039;-67
2023/03/29 01:38:40;;;;;;;9.60;3.05;;;;;;;-143.48;73.12;118439.88;5072845;28;20021;-67
2023/03/29 01:41:06;;;;;;;8.13;2.97;;;;;;;-143.48;73.04;118439.88;5054815;28;20028;-67
2023/03/29 01:43:47;;;;;;;6.35;2.90;;;;;;;-143.48;73.23;118439.88;5054746;28;20028;-68
2023/03/29 01:46:20;;;;;;;7.00;2.90;;;;;;;-143.48;73.68;118439.88;5072762;28;20465;-69
2023/03/29 01:48:51;;;;;;;7.22;3.40;;;;;;;-143.48;73.95;118439.88;5072751;28;20531;-68
2023/03/29 01:51:35;;;;;;;6.50;3.05;;;;;;;-143.48;74.24;118439.88;5054731;28;20021;-68
2023/03/29 01:54:06;;;;;;;6.28;3.30;;;;;;;-143.48;73.96;118439.88;5054540;28;20051;-68
2023/03/29 01:56:37;;;;;;;8.00;3.40;;;;;;;-143.48;74.32;118439.88;5072689;28;20024;-68
2023/03/29 01:59:07;;;;;;;7.68;3.10;;;;;;;-143.48;74.62;118439.88;5072669;28;20028;-67
2023/03/29 02:01:37;;;;;;;11.77;3.28;;;;;;;-143.48;74.66;118439.88;5072756;28;20439;-68
2023/03/29 02:04:09;;;;;;;8.25;3.50;;;;;;;-143.48;75.09;118439.88;5072551;28;20353;-67
2023/03/29 02:06:36;;;;;;;12.75;3.78;;;;;;;-143.48;74.64;118439.88;5054681;28;20024;-69
2023/03/29 02:09:03;;;;;;;7.93;2.90;;;;;;;-143.48;74.93;118439.88;5072635;28;20028;-67
2023/03/29 02:11:29;;;;;;;7.57;2.95;;;;;;;-143.48;75.28;118439.88;5054627;28;20021;-67
2023/03/29 02:13:57;;;;;;;8.20;2.95;;;;;;;-143.48;75.25;118439.88;5072475;28;20028;-68
2023/03/29 02:16:23;;;;;;;5.00;3.00;;;;;;;-143.48;75.22;118439.88;5072490;28;20028;-67
2023/03/29 02:18:51;;;;;;;6.97;3.20;;;;;;;-143.48;75.21;118439.88;5072470;28;20427;-68
2023/03/29 02:21:29;;;;;;;6.05;3.20;;;;;;;-143.48;75.52;118439.88;5072716;28;20021;-68
2023/03/29 02:23:58;;;;;;;7.15;3.47;;;;;;;-143.48;75.39;118439.88;5072766;28;20032;-68
2023/03/29 02:26:23;;;;;;;8.30;3.03;;;;;;;-143.48;74.94;118439.88;5072500;28;20021;-68
2023/03/29 02:28:50;;;;;;;6.25;3.22;;;;;;;-143.48;75.46;118439.88;5072770;28;20056;-68
2023/03/29 02:31:17;;;;;;;6.13;3.33;;;;;;;-143.48;75.84;118439.88;5076105;28;20020;-68
2023/03/29 02:33:44;;;;;;;6.13;3.13;;;;;;;-143.48;75.93;118439.88;5076080;28;20024;-69
2023/03/29 02:36:18;;;;;;;6.95;3.00;;;;;;;-143.48;76.06;118439.88;5075989;28;20074;-70
2023/03/29 02:38:43;;;;;;;7.43;3.15;;;;;;;-143.48;75.82;118439.88;5075926;28;20047;-68
2023/03/29 02:41:09;;;;;;;5.60;3.25;;;;;;;-143.48;75.66;118439.88;5057846;28;20111;-67
2023/03/29 02:43:36;;;;;;;6.88;3.10;;;;;;;-143.48;75.59;118439.88;5075966;28;20038;-67
2023/03/29 02:46:04;;;;;;;10.75;3.40;;;;;;;-143.48;75.23;118439.88;5075966;28;20074;-68
2023/03/29 02:48:31;;;;;;;14.35;3.67;;;;;;;-143.48;75.00;118439.88;5075646;28;20151;-68
2023/03/29 02:51:01;;;;;;;9.77;3.20;;;;;;;-143.48;75.51;118439.88;5075616;28;20031;-67
2023/03/29 02:53:43;;;;;;;7.45;3.05;;;;;;;-143.48;75.47;118439.88;5075374;28;20047;-67
2023/03/29 02:56:09;;;;;;;8.57;3.63;;;;;;;-143.48;75.37;118439.88;5075486;28;20044;-68
2023/03/29 02:58:35;;;;;;;9.00;3.50;;;;;;;-143.48;75.69;118439.88;5075512;28;20024;-67
2023/03/29 03:01:02;;;;;;;7.82;3.50;;;;;;;-143.48;75.75;118439.88;5075540;28;20082;-67
2023/03/29 03:03:27;;;;;;;8.27;3.85;;;;;;;-143.48;75.77;118439.88;5057415;28;20020;-68
2023/03/29 03:05:53;;;;;;;9.68;3.40;;;;;;;-143.48;75.65;118439.88;5057084;28;20020;-67
2023/03/29 03:08:19;;;;;;;6.72;3.33;;;;;;;-143.48;75.09;118439.88;5075286;28;20033;-69
2023/03/29 03:10:44;;;;;;;6.50;3.20;;;;;;;-143.48;75.50;118439.88;5075434;28;20107;-68
2023/03/29 03:13:10;;;;;;;7.85;3.50;;;;;;;-143.48;75.59;118439.88;5075120;28;20021;-67
2023/03/29 03:15:36;;;;;;;9.93;3.30;;;;;;;-143.48;75.26;118439.88;5074998;28;20064;-67
2023/03/29 03:18:02;;;;;;;7.55;3.80;;;;;;;-143.48;75.35;118439.88;5075204;28;20047;-67
2023/03/29 03:20:28;;;;;;;6.75;3.35;;;;;;;-143.48;75.81;118439.88;5074876;28;20032;-67
2023/03/29 03:22:56;;;;;;;9.57;3.53;;;;;;;-143.48;75.10;118439.88;5074894;28;20382;-67
2023/03/29 03:25:21;;;;;;;7.63;3.50;;;;;;;-143.48;75.66;118439.88;5074856;28;20388;-68
2023/03/29 03:27:48;;;;;;;7.25;3.42;;;;;;;-143.48;75.75;118439.88;5075012;28;20024;-67
2023/03/29 03:30:15;;;;;;;6.97;3.53;;;;;;;-143.48;75.25;118439.88;5074776;28;20024;-68
2023/03/29 03:32:42;;;;;;;16.30;3.92;;;;;;;-143.48;75.76;118439.88;5074585;28;20043;-68
2023/03/29 03:35:08;;;;;;;7.45;3.30;;;;;;;-143.48;75.20;118439.88;5074730;28;20016;-68
2023/03/29 03:37:34;;;;;;;5.78;3.30;;;;;;;-143.48;75.18;118439.88;5074713;28;20036;-68
2023/03/29 03:40:00;;;;;;;7.68;3.40;;;;;;;-143.48;75.06;118439.88;5074636;28;20413;-68
2023/03/29 03:42:28;;;;;;;6.72;3.67;;;;;;;-143.48;75.16;118439.88;5073842;28;20091;-68
2023/03/29 03:44:53;;;;;;;7.10;3.60;;;;;;;-143.48;75.20;118439.88;5056451;28;20493;-68
2023/03/29 03:47:19;;;;;;;9.60;3.70;;;;;;;-143.48;74.75;118439.88;5075867;28;20065;-68
2023/03/29 03:49:44;;;;;;;8.48;3.60;;;;;;;-143.48;75.10;118439.88;5074607;28;20475;-68
2023/03/29 03:52:10;;;;;;;10.75;3.53;;;;;;;-143.48;75.67;118439.88;5056312;28;20032;-68
2023/03/29 03:54:35;;;;;;;7.00;3.80;;;;;;;-143.48;75.08;118439.88;5073898;28;20040;-68
2023/03/29 03:57:02;;;;;;;8.35;3.40;;;;;;;-143.48;74.84;118439.88;5074494;28;20411;-68
2023/03/29 03:59:28;;;;;;;7.45;3.60;;;;;;;-143.48;75.25;118439.88;5074152;28;20090;-68
2023/03/29 04:01:53;;;;;;;8.15;3.75;;;;;;;-143.48;75.06;118439.88;5074107;28;20024;-68
2023/03/29 04:04:19;;;;;;;6.10;3.38;;;;;;;-143.48;75.17;118439.88;5056108;28;20017;-67
2023/03/29 04:06:44;;;;;;;6.65;3.30;;;;;;;-143.48;75.18;118439.88;5074043;28;20034;-67
2023/03/29 04:09:10;;;;;;;7.43;3.58;;;;;;;-143.48;75.40;118439.88;5073895;28;20020;-67
2023/03/29 04:11:35;;;;;;;6.60;3.72;;;;;;;-143.48;75.37;118439.88;5074394;28;20036;-67
2023/03/29 04:14:01;;;;;;;7.32;3.78;;;;;;;-143.48;75.51;118439.88;5073760;28;20054;-68
2023/03/29 04:16:27;;;;;;;8.05;3.47;;;;;;;-143.48;75.62;118439.88;5073859;28;20020;-67
2023/03/29 04:18:52;;;;;;;6.15;3.55;;;;;;;-143.48;75.54;118439.88;5073767;28;20502;-68
2023/03/29 04:21:18;;;;;;;6.60;3.85;;;;;;;-143.48;75.56;118439.88;5055891;28;20021;-69
2023/03/29 04:23:45;;;;;;;7.65;3.70;;;;;;;-143.48;75.64;118439.88;5073794;28;20082;-68
2023/03/29 04:26:12;;;;;;;6.97;3.80;;;;;;;-143.48;75.45;118439.88;5073967;28;20029;-68
2023/03/29 04:28:38;;;;;;;8.40;3.70;;;;;;;-143.48;75.75;118439.88;5073615;28;20024;-69
2023/03/29 04:31:03;;;;;;;5.93;3.42;;;;;;;-143.48;75.70;118439.88;5073579;28;20020;-68
2023/03/29 04:33:29;;;;;;;6.78;3.63;;;;;;;-143.48;75.67;118439.88;5073520;28;20024;-68
2023/03/29 04:35:54;;;;;;;11.95;3.88;;;;;;;-143.48;75.80;118439.88;5073532;28;20036;-68
2023/03/29 04:38:22;;;;;;;6.90;3.88;;;;;;;-143.48;75.96;118439.88;5073549;28;20024;-68
2023/03/29 04:40:48;;;;;;;8.40;3.97;;;;;;;-143.48;75.06;118439.88;5073370;28;20017;-68
2023/03/29 04:43:14;;;;;;;9.13;4.05;;;;;;;-143.48;74.95;118439.88;5073446;28;20024;-68
2023/03/29 04:45:39;;;;;;;9.50;3.80;;;;;;;-143.48;74.48;118439.88;5073401;28;20480;-68
2023/03/29 04:48:05;;;;;;;12.55;3.72;;;;;;;-143.48;74.85;118439.88;5073319;28;20031;-67
2023/03/29 04:50:30;;;;;;;9.13;3.72;;;;;;;-143.48;75.37;118439.88;5055549;28;20024;-68
2023/03/29 04:52:56;;;;;;;8.48;3.78;;;;;;;-143.48;75.17;118439.88;5072996;28;20108;-67
2023/03/29 04:55:21;;;;;;;9.73;4.18;;;;;;;-143.48;75.17;118439.88;5072714;28;20048;-67
2023/03/29 04:57:46;;;;;;;10.93;4.10;;;;;;;-143.48;75.49;118439.88;5073224;28;20036;-68
2023/03/29 05:00:15;;;;;;;7.82;3.80;;;;;;;-143.48;75.51;118439.88;5055314;28;20020;-68
2023/03/29 05:02:42;;;;;;;8.95;3.95;;;;;;;-143.48;75.67;118439.88;5073205;28;20028;-68
2023/03/29 05:05:09;;;;;;;7.95;3.97;;;;;;;-143.48;75.87;118439.88;5055178;28;20104;-67
2023/03/29 05:07:34;;;;;;;7.75;3.63;;;;;;;-143.48;75.29;118439.88;5073091;28;20021;-67
2023/03/29 05:10:00;;;;;;;8.00;3.92;;;;;;;-143.48;75.49;118439.88;5073046;28;20025;-67
2023/03/29 05:12:25;;;;;;;9.13;4.03;;;;;;;-143.48;75.07;118439.88;5073036;28;20038;-68
2023/03/29 05:14:50;;;;;;;10.15;4.25;;;;;;;-143.48;74.59;118439.88;5072952;28;20020;-67
2023/03/29 05:17:16;;;;;;;8.07;3.95;;;;;;;-143.48;74.45;118439.88;5073249;28;20024;-68
2023/03/29 05:19:42;;;;;;;10.30;3.78;;;;;;;-143.48;74.98;118439.88;5054910;28;20028;-67
2023/03/29 05:22:07;;;;;;;9.32;4.00;;;;;;;-143.48;74.69;118439.88;5055018;28;20479;-67
2023/03/29 05:24:34;;;;;;;9.52;4.25;;;;;;;-143.48;74.43;118439.88;5073118;28;20066;-68
2023/03/29 05:26:59;;;;;;;7.03;3.95;;;;;;;-143.48;75.07;118439.88;5073217;28;20020;-68
2023/03/29 05:29:31;;;;;;;7.97;3.83;;;;;;;-143.48;75.13;118439.88;5055448;28;20549;-69
2023/03/29 05:31:58;;;;;;;8.90;4.07;;;;;;;-143.48;75.38;118439.88;5055505;28;20032;-69
2023/03/29 05:34:24;;;;;;;8.90;4.10;;;;;;;-143.48;74.48;118439.88;5055586;28;20028;-69
2023/03/29 05:36:50;;;;;;;13.77;4.30;;;;;;;-143.48;75.06;118439.88;5072800;28;20107;-69
2023/03/29 05:39:16;;;;;;;12.00;4.55;;;;;;;-143.48;74.87;118439.88;5072696;28;20029;-70
2023/03/29 05:41:41;;;;;;;7.47;4.15;;;;;;;-143.48;75.46;118439.88;5072823;28;20040;-69
2023/03/29 05:44:07;;;;;;;10.18;4.00;;;;;;;-143.48;75.61;118439.88;5072671;28;20031;-69
2023/03/29 05:46:32;;;;;;;15.50;5.47;;;;;;;-143.48;76.09;118439.88;5054897;28;20392;-69
2023/03/29 05:48:58;;;;;;;14.65;4.38;;;;;;;-143.48;75.67;118439.88;5054821;28;20032;-69
2023/03/29 05:51:23;;;;;;;10.00;4.50;;;;;;;-143.48;75.59;118439.88;5054960;28;20032;-68
2023/03/29 05:53:50;;;;;;;9.15;4.47;;;;;;;-143.48;75.43;118439.88;5073135;28;20052;-69
2023/03/29 05:56:17;;;;;;;9.57;4.55;;;;;;;-143.48;75.12;118439.88;5054816;28;20062;-69
2023/03/29 05:58:42;;;;;;;12.45;4.40;;;;;;;-143.48;75.67;118439.88;5072576;28;20032;-69
2023/03/29 06:01:13;;;;;;;7.75;4.13;;;;;;;-143.48;75.25;118439.88;5072524;28;20105;-69
2023/03/29 06:03:39;;;;;;;9.10;4.13;;;;;;;-143.48;74.63;118439.88;5072658;28;20024;-69
2023/03/29 06:06:04;;;;;;;7.30;4.35;;;;;;;-143.48;74.73;118439.88;5075034;28;20514;-69
2023/03/29 06:08:32;;;;;;;8.23;4.70;;;;;;;-143.48;75.18;118439.88;5076964;28;20028;-69
2023/03/29 06:11:00;;;;;;;9.77;4.60;;;;;;;-143.48;75.42;118439.88;5076260;28;20162;-69
2023/03/29 06:13:26;;;;;;;9.05;4.65;;;;;;;-143.48;75.38;118439.88;5075916;28;20036;-69
2023/03/29 06:15:52;;;;;;;11.63;5.07;;;;;;;-143.48;75.39;118439.88;5076214;28;20365;-68
2023/03/29 06:18:18;;;;;;;10.38;4.60;;;;;;;-143.48;75.64;118439.88;5076165;28;20021;-69
2023/03/29 06:20:50;;;;;;;10.18;4.70;;;;;;;-143.48;75.70;118439.88;5076527;28;20039;-69
2023/03/29 06:23:17;;;;;;;10.67;5.10;;;;;;;-143.48;75.97;118439.88;5058553;28;20028;-68
2023/03/29 06:25:44;;;;;;;8.85;4.65;;;;;;;-143.48;75.56;118439.88;5077654;28;20024;-69
2023/03/29 06:28:10;;;;;;;10.05;4.20;;;;;;;-143.48;75.12;118439.88;5058716;28;20026;-70
2023/03/29 06:30:36;;;;;;;10.88;4.40;;;;;;;-143.48;75.64;118439.88;5077376;28;20031;-68
2023/03/29 06:33:01;;;;;;;11.95;4.50;;;;;;;-143.48;75.64;118439.88;5077825;28;20471;-68
2023/03/29 06:35:26;;;;;;;9.13;4.63;;;;;;;-143.48;75.53;118439.88;5077455;28;20029;-68
2023/03/29 06:37:53;;;;;;;11.68;5.13;;;;;;;-143.48;75.50;118439.88;5059574;28;20035;-68
2023/03/29 06:40:20;;;;;;;9.80;5.05;;;;;;;-143.48;75.55;118439.88;5062401;28;20021;-69
2023/03/29 06:42:49;;;;;;;12.55;5.28;;;;;;;-143.48;75.34;118439.88;5081101;28;20498;-68
2023/03/29 06:45:15;;;;;;;12.60;4.90;;;;;;;-143.48;75.32;118439.88;5059416;28;20511;-68
2023/03/29 06:47:41;;;;;;;10.70;5.20;;;;;;;-143.48;75.62;118439.88;5060163;28;20044;-68
2023/03/29 06:50:07;;;;;;;11.85;4.97;;;;;;;-143.48;75.87;118439.88;5059401;28;20035;-68
2023/03/29 06:52:32;;;;;;;8.38;4.82;;;;;;;-143.48;76.21;118439.88;5078641;28;20476;-68
2023/03/29 06:55:00;;;;;;;7.85;4.70;;;;;;;-143.48;76.64;118439.88;5077253;28;20048;-69
2023/03/29 06:57:26;;;;;;;9.55;4.90;;;;;;;-143.48;77.22;118439.88;5059027;28;20124;-69
2023/03/29 06:59:52;;;;;;;10.07;5.32;;;;;;;-143.48;77.15;118439.88;5076719;28;20363;-69
2023/03/29 07:02:17;;;;;;;9.90;5.32;;;;;;;-143.48;77.30;118439.88;5076071;28;20030;-69
2023/03/29 07:04:43;;;;;;;10.50;5.45;;;;;;;-143.48;77.58;118439.88;5078153;28;20103;-69
2023/03/29 07:07:18;;;;;;;12.63;5.60;;;;;;;-143.48;78.31;118439.88;5075961;28;20479;-69
2023/03/29 07:09:45;;;;;;;8.65;5.30;;;;;;;-143.48;78.38;118439.88;5075806;28;20031;-69
2023/03/29 07:12:11;;;;;;;13.00;5.50;;;;;;;-143.48;78.11;118439.88;5076286;28;20048;-69
2023/03/29 07:14:36;;;;;;;12.77;5.05;;;;;;;-143.48;78.00;118439.88;5076608;28;20047;-68
2023/03/29 07:17:02;;;;;;;12.35;5.47;;;;;;;-143.48;78.48;118439.88;5076608;28;20024;-68
2023/03/29 07:19:29;;;;;;;8.35;5.10;;;;;;;-143.48;78.12;118439.88;5075577;28;20669;-68
2023/03/29 07:21:54;;;;;;;10.07;5.90;;;;;;;-143.48;78.56;118439.88;5058776;28;20549;-68
2023/03/29 07:24:21;;;;;;;11.23;5.53;;;;;;;-143.48;79.24;118439.88;5075417;28;20024;-68
2023/03/29 07:26:47;;;;;;;12.57;5.30;;;;;;;-143.48;79.17;118439.88;5075130;28;20021;-68
2023/03/29 07:29:13;;;;;;;12.45;5.38;;;;;;;-143.48;79.85;118439.88;5075734;28;20430;-68
2023/03/29 07:31:40;;;;;;;15.15;5.70;;;;;;;-143.48;80.00;118439.88;5057375;28;20036;-69
2023/03/29 07:34:09;;;;;;;9.70;5.70;;;;;;;-143.48;79.31;118439.88;5075140;28;20032;-68
2023/03/29 07:36:38;;;;;;;12.07;6.00;;;;;;;-143.48;78.83;118439.88;5057217;28;20062;-67
2023/03/29 07:39:08;;;;;;;14.18;5.70;;;;;;;-143.48;78.14;118439.88;5075388;28;20450;-68
2023/03/29 07:41:34;;;;;;;12.07;6.03;;;;;;;-143.48;78.92;118439.88;5075306;28;20031;-68
2023/03/29 07:44:03;;;;;;;12.35;5.93;;;;;;;-143.48;77.78;118439.88;5078026;28;20021;-71
2023/03/29 07:46:29;;;;;;;17.33;5.97;;;;;;;-143.48;78.01;118439.88;5074900;28;20055;-68
2023/03/29 07:48:55;;;;;;;13.00;6.20;;;;;;;-143.48;78.15;118439.88;5075224;28;20075;-68
2023/03/29 07:51:21;;;;;;;12.30;5.93;;;;;;;-143.48;77.72;118439.88;5075172;28;20040;-68
2023/03/29 07:53:46;;;;;;;11.40;6.00;;;;;;;-143.48;78.30;118439.88;5058281;28;21687;-66
2023/03/29 07:56:11;;;;;;;11.88;5.75;;;;;;;-143.48;77.90;118439.88;5080938;28;20044;-69
2023/03/29 07:58:37;;;;;;;12.95;6.00;;;;;;;-143.48;77.85;118439.88;5078990;28;20468;-68
2023/03/29 08:01:02;;;;;;;14.80;6.18;;;;;;;-143.48;78.43;118439.88;5074717;28;20060;-68
2023/03/29 08:03:28;;;;;;;12.93;6.25;;;;;;;-143.48;77.99;118439.88;5074608;28;20480;-68
2023/03/29 08:05:53;;;;;;;14.30;6.70;;;;;;;-143.48;77.90;118439.88;5074515;28;20518;-68
2023/03/29 08:08:19;;;;;;;15.60;6.25;;;;;;;-143.48;77.84;118439.88;5078791;28;20384;-68
2023/03/29 08:10:44;;;;;;;12.38;6.45;;;;;;;-143.48;77.54;118439.88;5074668;28;20036;-68
2023/03/29 08:13:10;;;;;;;13.77;6.63;;;;;;;-143.48;77.62;118439.88;5074329;28;20032;-69
2023/03/29 08:15:38;;;;;;;17.75;7.22;;;;;;;-143.48;77.74;118439.88;5074495;28;20016;-68
2023/03/29 08:18:03;;;;;;;13.10;6.68;;;;;;;-143.48;77.51;118439.88;5074179;28;20090;-68
2023/03/29 08:20:29;;;;;;;15.40;6.95;;;;;;;-143.48;77.63;118439.88;5076885;28;20032;-68
2023/03/29 08:22:54;;;;;;;11.90;6.47;;;;;;;-143.48;77.36;118439.88;5074301;28;20020;-68
2023/03/29 08:25:20;;;;;;;12.80;7.15;;;;;;;-143.48;77.76;118439.88;5074103;28;20393;-69
2023/03/29 08:27:46;;;;;;;14.20;6.93;;;;;;;-143.48;77.49;118439.88;5074200;28;20031;-68
2023/03/29 08:30:13;;;;;;;11.80;6.95;;;;;;;-143.48;76.99;118439.88;5074314;28;20016;-69
2023/03/29 08:32:39;;;;;;;15.13;7.20;;;;;;;-143.48;77.32;118439.88;5074442;28;20082;-68
2023/03/29 08:35:08;;;;;;;16.20;7.30;;;;;;;-143.48;77.66;118439.88;5056393;28;20028;-68
2023/03/29 08:37:35;;;;;;;15.43;7.22;;;;;;;-143.48;77.25;118439.88;5075097;28;20036;-69
2023/03/29 08:40:00;;;;;;;15.75;7.10;;;;;;;-143.48;76.75;118439.88;5083515;28;20039;-68
2023/03/29 08:42:57;;;;;;;14.57;7.35;;;;;;;-143.48;75.48;118439.88;5081372;28;20029;-69
2023/03/29 08:45:47;;;;;;;14.88;7.22;;;;;;;-143.48;76.64;118439.88;5080963;28;20491;-67
2023/03/29 08:48:40;;;;;;;17.02;7.30;;;;;;;-143.48;75.88;118439.88;5077191;28;20426;-68
2023/03/29 08:51:25;;;;;;;13.98;7.55;;;;;;;-143.48;76.51;118439.88;5075760;28;20407;-68
2023/03/29 08:54:05;;;;;;;16.67;7.10;;;;;;;-143.48;77.13;118439.88;5074287;28;20048;-67
2023/03/29 08:56:34;;;;;;;15.50;7.40;;;;;;;-143.48;76.54;118439.88;5074723;28;20031;-68
2023/03/29 08:59:01;;;;;;;14.77;7.25;;;;;;;-143.48;76.71;118439.88;5077329;28;20052;-67
2023/03/29 09:01:32;;;;;;;15.18;7.70;;;;;;;-143.48;76.83;118439.88;5074037;28;20024;-68
2023/03/29 09:04:08;;;;;;;16.02;7.78;;;;;;;-143.48;76.13;118439.88;5073567;28;20055;-68
2023/03/29 09:06:34;;;;;;;14.75;8.10;;;;;;;-143.48;76.79;118439.88;5073229;28;20028;-68
2023/03/29 09:09:00;;;;;;;14.23;7.32;;;;;;;-143.48;76.65;118439.88;5073316;28;20028;-68
2023/03/29 09:11:40;;;;;;;18.20;7.82;;;;;;;-143.48;77.41;118439.88;5073469;28;20063;-68
2023/03/29 09:14:27;;;;;;;13.95;8.07;;;;;;;-143.48;77.50;118439.88;5075299;28;20036;-67
2023/03/29 09:17:10;;;;;;;16.58;8.02;;;;;;;-143.48;77.98;118439.88;5077012;28;20028;-67
2023/03/29 09:19:48;;;;;;;21.50;7.93;;;;;;;-143.48;77.56;118439.88;5079937;28;20044;-68
2023/03/29 09:22:33;;;;;;;17.98;8.15;;;;;;;-143.48;76.32;118439.88;5075480;28;20020;-68
2023/03/29 09:25:04;;;;;;;13.90;7.50;;;;;;;-143.48;75.50;118439.88;5073594;28;20020;-68
2023/03/29 09:27:42;;;;;;;13.02;7.22;;;;;;;-143.48;75.25;118439.88;5073417;28;20393;-68
2023/03/29 09:30:25;;;;;;;17.05;7.28;;;;;;;-143.48;75.43;118439.88;5055015;28;20031;-68
2023/03/29 09:32:52;;;;;;;17.05;8.00;;;;;;;-143.48;76.04;118439.88;5073606;28;20095;-68
2023/03/29 09:35:29;;;;;;;16.50;8.15;;;;;;;-143.48;75.46;118439.88;5055374;28;20468;-69
2023/03/29 09:37:55;;;;;;;16.88;8.23;;;;;;;-143.48;77.33;118439.88;5077116;28;20071;-68
2023/03/29 09:40:27;;;;;;;15.68;7.55;;;;;;;-143.48;77.19;118439.88;5062912;28;20123;-69
2023/03/29 09:42:54;;;;;;;17.48;7.75;;;;;;;-143.48;76.75;118439.88;5098021;28;20050;-66
2023/03/29 09:45:20;;;;;;;16.13;8.13;;;;;;;-143.48;76.78;118439.88;5073377;28;20052;-69
2023/03/29 09:48:08;;;;;;;17.70;8.38;;;;;;;-143.48;76.99;118439.88;5082033;28;20021;-68
2023/03/29 09:50:37;;;;;;;15.65;8.60;;;;;;;-143.48;76.98;118439.88;5078481;28;20047;-67
2023/03/29 09:53:04;;;;;;;24.58;8.52;;;;;;;-143.48;78.16;118439.88;5090007;28;20020;-69
2023/03/29 09:55:32;;;;;;;16.90;8.75;;;;;;;-143.48;78.41;118439.88;5058144;28;20044;-68
2023/03/29 09:58:00;;;;;;;20.73;8.07;;;;;;;-143.48;78.65;118439.88;5076994;28;20089;-69
2023/03/29 10:00:26;;;;;;;15.23;8.30;;;;;;;-143.48;77.94;118439.88;5077126;28;20122;-68
2023/03/29 10:02:53;;;;;;;19.40;8.45;;;;;;;-143.48;78.54;118439.88;5077343;28;20035;-68
2023/03/29 10:05:18;;;;;;;17.52;8.35;;;;;;;-143.48;78.27;118439.88;5059144;28;20027;-68
2023/03/29 10:07:47;;;;;;;13.35;7.78;;;;;;;-143.48;77.83;118439.88;5076767;28;20064;-68
2023/03/29 10:10:27;;;;;;;18.67;8.93;;;;;;;-143.48;76.33;118439.88;5076577;28;20100;-68
2023/03/29 10:12:56;;;;;;;15.13;8.63;;;;;;;-143.48;76.85;118439.88;5058972;28;20024;-69
2023/03/29 10:15:22;;;;;;;20.08;9.00;;;;;;;-143.48;76.48;118439.88;5076526;28;20506;-69
2023/03/29 10:17:47;;;;;;;16.80;8.75;;;;;;;-143.48;77.38;118439.88;5058683;28;20111;-68
2023/03/29 10:20:17;;;;;;;15.50;8.50;;;;;;;-143.48;77.46;118439.88;5077018;28;20049;-69
2023/03/29 10:22:48;;;;;;;16.98;8.77;;;;;;;-143.48;78.06;118439.88;5076374;28;20103;-69
2023/03/29 10:25:16;;;;;;;16.23;9.20;;;;;;;-143.48;78.60;118439.88;5076413;28;20494;-69
2023/03/29 10:27:44;;;;;;;17.67;8.98;;;;;;;-143.48;78.03;118439.88;5057218;28;20047;-69
2023/03/29 10:30:17;;;;;;;17.40;9.25;;;;;;;-143.48;77.13;118439.88;5074400;28;20039;-69
2023/03/29 10:32:43;;;;;;;19.98;8.88;;;;;;;-143.48;76.93;118439.88;5056714;28;20131;-69
2023/03/29 10:35:14;;;;;;;17.35;8.93;;;;;;;-143.48;78.12;118439.88;5076135;28;20041;-69
2023/03/29 10:37:47;;;;;;;15.48;8.90;;;;;;;-143.48;78.04;118439.88;5075452;28;20475;-69
2023/03/29 10:40:25;;;;;;;14.93;9.38;;;;;;;-143.48;76.83;118439.88;5077162;28;20060;-69
2023/03/29 10:42:52;;;;;;;16.50;8.50;;;;;;;-143.48;77.51;118439.88;5074501;28;20032;-68
2023/03/29 10:45:27;;;;;;;17.25;8.90;;;;;;;-143.48;78.25;118439.88;5074518;28;20024;-68
2023/03/29 10:47:57;;;;;;;16.92;8.85;;;;;;;-143.48;76.44;118439.88;5075064;28;20059;-67
2023/03/29 10:50:23;;;;;;;17.48;9.77;;;;;;;-143.48;78.30;118439.88;5061480;28;20032;-68
2023/03/29 10:52:49;;;;;;;13.80;8.73;;;;;;;-143.48;79.33;118439.88;5061909;28;20017;-69
2023/03/29 10:55:15;;;;;;;18.48;9.73;;;;;;;-143.48;79.40;118439.88;5076326;28;20049;-69
2023/03/29 10:57:59;;;;;;;18.10;8.93;;;;;;;-143.48;79.01;118439.88;5076460;28;20106;-69
2023/03/29 11:01:02;;;;;;;16.30;8.70;;;;;;;-143.48;77.27;118439.88;5076056;28;20036;-69
2023/03/29 11:03:42;;;;;;;18.13;8.02;;;;;;;-143.48;78.50;118439.88;5062318;28;20098;-68
2023/03/29 11:06:19;;;;;;;17.15;8.15;;;;;;;-143.48;77.77;118439.88;5075734;28;20361;-68
2023/03/29 11:08:56;;;;;;;13.85;7.85;;;;;;;-143.48;75.10;118439.88;5075843;28;20427;-67
2023/03/29 11:11:48;;;;;;;13.82;7.97;;;;;;;-143.48;77.25;118439.88;5075919;28;20104;-68
2023/03/29 11:14:20;;;;;;;15.18;8.57;;;;;;;-143.48;76.62;118439.88;5076186;28;20021;-68